sensor_id;sensor_type;location;lat;lon;timestamp;P1;durP1;ratioP1;P2;durP2;ratioP2
9976;SDS011;5029;47.378;11.776;2023-03-14T00:01:07;2.00;;;1.60;;
9976;SDS011;5029;47.378;11.776;2023-03-14T00:06:11;1.80;;;1.33;;
9976;SDS011;5029;47.378;11.776;2023-03-14T00:11:17;2.27;;;1.57;;
9976;SDS011;5029;47.378;11.776;2023-03-14T00:16:24;2.10;;;1.40;;
9976;SDS011;5029;47.378;11.776;2023-03-14T00:21:30;1.70;;;1.50;;
9976;SDS011;5029;47.378;11.776;2023-03-14T00:26:34;3.43;;;1.50;;
9976;SDS011;5029;47.378;11.776;2023-03-14T00:31:38;1.53;;;1.23;;
9976;SDS011;5029;47.378;11.776;2023-03-14T00:36:42;3.03;;;1.40;;
9976;SDS011;5029;47.378;11.776;2023-03-14T00:41:48;3.23;;;1.47;;
9976;SDS011;5029;47.378;11.776;2023-03-14T00:46:51;3.20;;;1.57;;
9976;SDS011;5029;47.378;11.776;2023-03-14T00:51:55;2.80;;;1.87;;
9976;SDS011;5029;47.378;11.776;2023-03-14T00:56:59;2.87;;;1.60;;
9976;SDS011;5029;47.378;11.776;2023-03-14T01:02:03;2.40;;;1.40;;
9976;SDS011;5029;47.378;11.776;2023-03-14T01:07:07;2.10;;;1.47;;
9976;SDS011;5029;47.378;11.776;2023-03-14T01:12:11;2.40;;;1.40;;
9976;SDS011;5029;47.378;11.776;2023-03-14T01:17:15;2.00;;;1.23;;
9976;SDS011;5029;47.378;11.776;2023-03-14T01:22:18;4.33;;;1.70;;
9976;SDS011;5029;47.378;11.776;2023-03-14T01:27:24;1.87;;;1.40;;
9976;SDS011;5029;47.378;11.776;2023-03-14T01:32:28;2.43;;;1.53;;
9976;SDS011;5029;47.378;11.776;2023-03-14T01:37:32;2.83;;;1.60;;
9976;SDS011;5029;47.378;11.776;2023-03-14T01:42:37;2.43;;;1.40;;
9976;SDS011;5029;47.378;11.776;2023-03-14T01:47:40;1.63;;;1.40;;
9976;SDS011;5029;47.378;11.776;2023-03-14T01:52:44;2.30;;;1.53;;
9976;SDS011;5029;47.378;11.776;2023-03-14T01:57:52;2.90;;;1.60;;
9976;SDS011;5029;47.378;11.776;2023-03-14T02:03:00;1.27;;;1.17;;
9976;SDS011;5029;47.378;11.776;2023-03-14T02:08:10;1.30;;;1.20;;
9976;SDS011;5029;47.378;11.776;2023-03-14T02:13:18;1.67;;;1.37;;
9976;SDS011;5029;47.378;11.776;2023-03-14T02:18:23;2.47;;;1.40;;
9976;SDS011;5029;47.378;11.776;2023-03-14T02:23:30;2.47;;;1.53;;
9976;SDS011;5029;47.378;11.776;2023-03-14T02:28:41;2.40;;;1.37;;
9976;SDS011;5029;47.378;11.776;2023-03-14T02:33:44;1.53;;;1.43;;
9976;SDS011;5029;47.378;11.776;2023-03-14T02:38:50;4.40;;;1.30;;
9976;SDS011;5029;47.378;11.776;2023-03-14T02:44:02;1.53;;;1.13;;
9976;SDS011;5029;47.378;11.776;2023-03-14T02:49:07;2.13;;;1.30;;
9976;SDS011;5029;47.378;11.776;2023-03-14T02:54:12;1.70;;;1.30;;
9976;SDS011;5029;47.378;11.776;2023-03-14T02:59:19;2.33;;;1.20;;
9976;SDS011;5029;47.378;11.776;2023-03-14T03:04:22;1.77;;;1.30;;
9976;SDS011;5029;47.378;11.776;2023-03-14T03:09:26;2.73;;;1.50;;
9976;SDS011;5029;47.378;11.776;2023-03-14T03:14:31;1.30;;;1.20;;
9976;SDS011;5029;47.378;11.776;2023-03-14T03:19:34;1.40;;;1.07;;
9976;SDS011;5029;47.378;11.776;2023-03-14T03:24:37;1.10;;;1.00;;
9976;SDS011;5029;47.378;11.776;2023-03-14T03:29:42;0.60;;;0.60;;
9976;SDS011;5029;47.378;11.776;2023-03-14T03:34:46;1.87;;;0.60;;
9976;SDS011;5029;47.378;11.776;2023-03-14T03:39:49;0.30;;;0.30;;
9976;SDS011;5029;47.378;11.776;2023-03-14T03:44:55;0.23;;;0.23;;
9976;SDS011;5029;47.378;11.776;2023-03-14T03:49:58;1.57;;;0.50;;
9976;SDS011;5029;47.378;11.776;2023-03-14T03:55:01;0.30;;;0.20;;
9976;SDS011;5029;47.378;11.776;2023-03-14T04:00:07;0.63;;;0.30;;
9976;SDS011;5029;47.378;11.776;2023-03-14T04:05:13;0.10;;;0.10;;
9976;SDS011;5029;47.378;11.776;2023-03-14T04:10:16;0.77;;;0.27;;
9976;SDS011;5029;47.378;11.776;2023-03-14T04:15:21;0.30;;;0.30;;
9976;SDS011;5029;47.378;11.776;2023-03-14T04:20:25;0.10;;;0.10;;
9976;SDS011;5029;47.378;11.776;2023-03-14T04:25:28;0.63;;;0.17;;
9976;SDS011;5029;47.378;11.776;2023-03-14T04:30:33;0.10;;;0.10;;
9976;SDS011;5029;47.378;11.776;2023-03-14T04:35:38;0.20;;;0.10;;
9976;SDS011;5029;47.378;11.776;2023-03-14T04:40:41;1.17;;;0.33;;
9976;SDS011;5029;47.378;11.776;2023-03-14T04:45:47;0.10;;;0.10;;
9976;SDS011;5029;47.378;11.776;2023-03-14T04:50:50;0.63;;;0.50;;
9976;SDS011;5029;47.378;11.776;2023-03-14T04:55:54;0.00;;;0.00;;
9976;SDS011;5029;47.378;11.776;2023-03-14T05:01:02;0.70;;;0.30;;
9976;SDS011;5029;47.378;11.776;2023-03-14T05:06:07;0.27;;;0.20;;
9976;SDS011;5029;47.378;11.776;2023-03-14T05:11:10;0.80;;;0.50;;
9976;SDS011;5029;47.378;11.776;2023-03-14T05:16:15;0.90;;;0.30;;
9976;SDS011;5029;47.378;11.776;2023-03-14T05:21:19;0.20;;;0.20;;
9976;SDS011;5029;47.378;11.776;2023-03-14T05:26:22;2.00;;;0.93;;
9976;SDS011;5029;47.378;11.776;2023-03-14T05:31:27;0.70;;;0.50;;
9976;SDS011;5029;47.378;11.776;2023-03-14T05:36:30;1.10;;;1.00;;
9976;SDS011;5029;47.378;11.776;2023-03-14T05:41:34;1.23;;;0.33;;
9976;SDS011;5029;47.378;11.776;2023-03-14T05:46:38;0.50;;;0.30;;
9976;SDS011;5029;47.378;11.776;2023-03-14T05:51:42;0.83;;;0.27;;
9976;SDS011;5029;47.378;11.776;2023-03-14T05:56:45;0.40;;;0.30;;
9976;SDS011;5029;47.378;11.776;2023-03-14T06:01:50;1.20;;;0.63;;
9976;SDS011;5029;47.378;11.776;2023-03-14T06:06:53;4.13;;;2.20;;
9976;SDS011;5029;47.378;11.776;2023-03-14T06:11:56;1.57;;;0.90;;
9976;SDS011;5029;47.378;11.776;2023-03-14T06:17:01;1.50;;;1.40;;
9976;SDS011;5029;47.378;11.776;2023-03-14T06:22:05;0.30;;;0.30;;
9976;SDS011;5029;47.378;11.776;2023-03-14T06:27:08;0.87;;;0.53;;
9976;SDS011;5029;47.378;11.776;2023-03-14T06:32:13;0.87;;;0.53;;
9976;SDS011;5029;47.378;11.776;2023-03-14T06:37:16;1.50;;;1.10;;
9976;SDS011;5029;47.378;11.776;2023-03-14T06:42:21;1.87;;;1.07;;
9976;SDS011;5029;47.378;11.776;2023-03-14T06:47:26;1.20;;;0.90;;
9976;SDS011;5029;47.378;11.776;2023-03-14T06:52:29;2.20;;;1.13;;
9976;SDS011;5029;47.378;11.776;2023-03-14T06:57:33;3.43;;;2.00;;
9976;SDS011;5029;47.378;11.776;2023-03-14T07:02:37;3.93;;;2.23;;
9976;SDS011;5029;47.378;11.776;2023-03-14T07:07:43;3.00;;;1.80;;
9976;SDS011;5029;47.378;11.776;2023-03-14T07:12:47;2.70;;;2.00;;
9976;SDS011;5029;47.378;11.776;2023-03-14T07:17:51;1.73;;;1.63;;
9976;SDS011;5029;47.378;11.776;2023-03-14T07:22:55;1.77;;;1.10;;
9976;SDS011;5029;47.378;11.776;2023-03-14T07:27:58;1.57;;;1.47;;
9976;SDS011;5029;47.378;11.776;2023-03-14T07:33:03;1.50;;;1.23;;
9976;SDS011;5029;47.378;11.776;2023-03-14T07:38:06;2.57;;;1.57;;
9976;SDS011;5029;47.378;11.776;2023-03-14T07:43:10;9.43;;;8.63;;
9976;SDS011;5029;47.378;11.776;2023-03-14T07:48:14;4.80;;;3.50;;
9976;SDS011;5029;47.378;11.776;2023-03-14T07:53:18;4.30;;;2.70;;
9976;SDS011;5029;47.378;11.776;2023-03-14T07:58:22;3.50;;;3.20;;
9976;SDS011;5029;47.378;11.776;2023-03-14T08:03:27;3.00;;;2.57;;
9976;SDS011;5029;47.378;11.776;2023-03-14T08:08:31;2.43;;;2.23;;
9976;SDS011;5029;47.378;11.776;2023-03-14T08:13:35;2.37;;;2.10;;
9976;SDS011;5029;47.378;11.776;2023-03-14T08:18:40;2.07;;;1.57;;
9976;SDS011;5029;47.378;11.776;2023-03-14T08:23:44;2.20;;;1.70;;
9976;SDS011;5029;47.378;11.776;2023-03-14T08:28:47;2.27;;;2.07;;
9976;SDS011;5029;47.378;11.776;2023-03-14T08:33:52;2.90;;;2.13;;
9976;SDS011;5029;47.378;11.776;2023-03-14T08:38:56;3.07;;;2.77;;
9976;SDS011;5029;47.378;11.776;2023-03-14T08:43:59;3.27;;;2.93;;
9976;SDS011;5029;47.378;11.776;2023-03-14T08:49:04;4.03;;;3.60;;
9976;SDS011;5029;47.378;11.776;2023-03-14T08:54:09;5.47;;;4.27;;
9976;SDS011;5029;47.378;11.776;2023-03-14T08:59:13;6.97;;;6.27;;
9976;SDS011;5029;47.378;11.776;2023-03-14T09:04:18;4.80;;;4.30;;
9976;SDS011;5029;47.378;11.776;2023-03-14T09:09:21;6.47;;;5.37;;
9976;SDS011;5029;47.378;11.776;2023-03-14T09:14:24;4.97;;;4.43;;
9976;SDS011;5029;47.378;11.776;2023-03-14T09:19:29;7.27;;;5.90;;
9976;SDS011;5029;47.378;11.776;2023-03-14T09:24:32;6.10;;;5.50;;
9976;SDS011;5029;47.378;11.776;2023-03-14T09:29:36;7.03;;;5.40;;
9976;SDS011;5029;47.378;11.776;2023-03-14T09:34:41;6.47;;;5.47;;
9976;SDS011;5029;47.378;11.776;2023-03-14T09:39:44;5.50;;;5.00;;
9976;SDS011;5029;47.378;11.776;2023-03-14T09:44:51;5.17;;;4.23;;
9976;SDS011;5029;47.378;11.776;2023-03-14T09:49:58;5.30;;;3.57;;
9976;SDS011;5029;47.378;11.776;2023-03-14T09:55:04;1.77;;;1.57;;
9976;SDS011;5029;47.378;11.776;2023-03-14T10:00:12;2.07;;;1.30;;
9976;SDS011;5029;47.378;11.776;2023-03-14T10:05:20;2.10;;;1.00;;
9976;SDS011;5029;47.378;11.776;2023-03-14T10:10:25;1.30;;;1.20;;
9976;SDS011;5029;47.378;11.776;2023-03-14T10:15:30;1.37;;;1.27;;
9976;SDS011;5029;47.378;11.776;2023-03-14T10:20:37;1.40;;;1.03;;
9976;SDS011;5029;47.378;11.776;2023-03-14T10:25:43;1.43;;;0.90;;
9976;SDS011;5029;47.378;11.776;2023-03-14T10:30:48;0.80;;;0.80;;
9976;SDS011;5029;47.378;11.776;2023-03-14T10:35:56;1.53;;;1.40;;
9976;SDS011;5029;47.378;11.776;2023-03-14T10:41:01;3.37;;;2.10;;
9976;SDS011;5029;47.378;11.776;2023-03-14T10:46:17;1.67;;;1.37;;
9976;SDS011;5029;47.378;11.776;2023-03-14T10:51:25;1.87;;;1.17;;
9976;SDS011;5029;47.378;11.776;2023-03-14T10:56:33;0.70;;;0.63;;
9976;SDS011;5029;47.378;11.776;2023-03-14T11:01:38;2.67;;;1.73;;
9976;SDS011;5029;47.378;11.776;2023-03-14T11:06:50;0.70;;;0.60;;
9976;SDS011;5029;47.378;11.776;2023-03-14T11:12:04;0.50;;;0.50;;
9976;SDS011;5029;47.378;11.776;2023-03-14T11:17:23;0.33;;;0.30;;
9976;SDS011;5029;47.378;11.776;2023-03-14T11:22:35;0.53;;;0.17;;
9976;SDS011;5029;47.378;11.776;2023-03-14T11:27:47;0.47;;;0.47;;
9976;SDS011;5029;47.378;11.776;2023-03-14T11:32:56;0.40;;;0.30;;
9976;SDS011;5029;47.378;11.776;2023-03-14T11:38:09;0.40;;;0.33;;
9976;SDS011;5029;47.378;11.776;2023-03-14T11:43:24;1.53;;;1.30;;
9976;SDS011;5029;47.378;11.776;2023-03-14T11:48:34;1.20;;;1.07;;
9976;SDS011;5029;47.378;11.776;2023-03-14T11:53:45;1.20;;;1.00;;
9976;SDS011;5029;47.378;11.776;2023-03-14T11:58:57;1.23;;;0.90;;
9976;SDS011;5029;47.378;11.776;2023-03-14T12:04:06;0.40;;;0.40;;
9976;SDS011;5029;47.378;11.776;2023-03-14T12:09:16;0.63;;;0.60;;
9976;SDS011;5029;47.378;11.776;2023-03-14T12:14:22;0.70;;;0.70;;
9976;SDS011;5029;47.378;11.776;2023-03-14T12:19:31;0.70;;;0.60;;
9976;SDS011;5029;47.378;11.776;2023-03-14T12:24:38;1.30;;;1.10;;
9976;SDS011;5029;47.378;11.776;2023-03-14T12:29:59;1.07;;;0.80;;
9976;SDS011;5029;47.378;11.776;2023-03-14T12:35:07;0.50;;;0.50;;
9976;SDS011;5029;47.378;11.776;2023-03-14T12:40:37;0.67;;;0.60;;
9976;SDS011;5029;47.378;11.776;2023-03-14T12:45:44;0.30;;;0.30;;
9976;SDS011;5029;47.378;11.776;2023-03-14T12:51:12;1.00;;;0.90;;
9976;SDS011;5029;47.378;11.776;2023-03-14T12:56:22;0.60;;;0.50;;
9976;SDS011;5029;47.378;11.776;2023-03-14T13:01:31;0.67;;;0.67;;
9976;SDS011;5029;47.378;11.776;2023-03-14T13:06:50;0.67;;;0.60;;
9976;SDS011;5029;47.378;11.776;2023-03-14T13:12:00;0.70;;;0.70;;
9976;SDS011;5029;47.378;11.776;2023-03-14T13:17:09;0.93;;;0.70;;
9976;SDS011;5029;47.378;11.776;2023-03-14T13:22:34;1.33;;;0.93;;
9976;SDS011;5029;47.378;11.776;2023-03-14T13:27:41;0.97;;;0.87;;
9976;SDS011;5029;47.378;11.776;2023-03-14T13:32:45;1.10;;;1.00;;
9976;SDS011;5029;47.378;11.776;2023-03-14T13:37:54;1.00;;;0.87;;
9976;SDS011;5029;47.378;11.776;2023-03-14T13:43:16;1.00;;;0.70;;
9976;SDS011;5029;47.378;11.776;2023-03-14T13:48:21;1.10;;;0.87;;
9976;SDS011;5029;47.378;11.776;2023-03-14T13:53:28;1.20;;;1.10;;
9976;SDS011;5029;47.378;11.776;2023-03-14T13:58:32;0.90;;;0.90;;
9976;SDS011;5029;47.378;11.776;2023-03-14T14:03:40;0.83;;;0.83;;
9976;SDS011;5029;47.378;11.776;2023-03-14T14:08:45;1.43;;;1.23;;
9976;SDS011;5029;47.378;11.776;2023-03-14T14:13:50;1.10;;;1.00;;
9976;SDS011;5029;47.378;11.776;2023-03-14T14:18:54;1.10;;;0.90;;
9976;SDS011;5029;47.378;11.776;2023-03-14T14:23:58;0.60;;;0.60;;
9976;SDS011;5029;47.378;11.776;2023-03-14T14:29:04;1.23;;;0.90;;
9976;SDS011;5029;47.378;11.776;2023-03-14T14:34:17;1.10;;;0.80;;
9976;SDS011;5029;47.378;11.776;2023-03-14T14:39:23;1.70;;;1.00;;
9976;SDS011;5029;47.378;11.776;2023-03-14T14:44:32;1.20;;;0.90;;
9976;SDS011;5029;47.378;11.776;2023-03-14T14:49:37;1.90;;;1.70;;
9976;SDS011;5029;47.378;11.776;2023-03-14T14:54:42;4.17;;;1.90;;
9976;SDS011;5029;47.378;11.776;2023-03-14T14:59:54;1.20;;;0.90;;
9976;SDS011;5029;47.378;11.776;2023-03-14T15:04:59;1.53;;;1.03;;
9976;SDS011;5029;47.378;11.776;2023-03-14T15:10:02;1.23;;;1.13;;
9976;SDS011;5029;47.378;11.776;2023-03-14T15:15:08;0.90;;;0.87;;
9976;SDS011;5029;47.378;11.776;2023-03-14T15:20:14;2.07;;;1.87;;
9976;SDS011;5029;47.378;11.776;2023-03-14T15:25:19;1.87;;;1.47;;
9976;SDS011;5029;47.378;11.776;2023-03-14T15:30:44;1.90;;;1.63;;
9976;SDS011;5029;47.378;11.776;2023-03-14T15:35:47;3.47;;;3.17;;
9976;SDS011;5029;47.378;11.776;2023-03-14T15:40:51;1.93;;;1.40;;
9976;SDS011;5029;47.378;11.776;2023-03-14T15:45:57;1.50;;;1.40;;
9976;SDS011;5029;47.378;11.776;2023-03-14T15:51:00;2.17;;;1.97;;
9976;SDS011;5029;47.378;11.776;2023-03-14T15:56:04;1.40;;;1.30;;
9976;SDS011;5029;47.378;11.776;2023-03-14T16:01:10;1.53;;;1.20;;
9976;SDS011;5029;47.378;11.776;2023-03-14T16:06:13;3.70;;;3.40;;
9976;SDS011;5029;47.378;11.776;2023-03-14T16:11:17;2.30;;;2.10;;
9976;SDS011;5029;47.378;11.776;2023-03-14T16:16:24;1.20;;;1.10;;
9976;SDS011;5029;47.378;11.776;2023-03-14T16:21:28;1.20;;;1.10;;
9976;SDS011;5029;47.378;11.776;2023-03-14T16:26:31;1.70;;;1.60;;
9976;SDS011;5029;47.378;11.776;2023-03-14T16:31:39;2.13;;;1.60;;
9976;SDS011;5029;47.378;11.776;2023-03-14T16:36:43;3.80;;;3.37;;
9976;SDS011;5029;47.378;11.776;2023-03-14T16:41:48;1.77;;;1.67;;
9976;SDS011;5029;47.378;11.776;2023-03-14T16:46:59;2.20;;;2.00;;
9976;SDS011;5029;47.378;11.776;2023-03-14T16:52:04;2.00;;;1.80;;
9976;SDS011;5029;47.378;11.776;2023-03-14T16:57:12;5.43;;;3.53;;
9976;SDS011;5029;47.378;11.776;2023-03-14T17:02:18;2.57;;;2.10;;
9976;SDS011;5029;47.378;11.776;2023-03-14T17:07:28;2.07;;;1.87;;
9976;SDS011;5029;47.378;11.776;2023-03-14T17:12:32;2.20;;;2.00;;
9976;SDS011;5029;47.378;11.776;2023-03-14T17:17:37;3.33;;;2.23;;
9976;SDS011;5029;47.378;11.776;2023-03-14T17:22:41;2.33;;;1.80;;
9976;SDS011;5029;47.378;11.776;2023-03-14T17:27:45;3.47;;;1.87;;
9976;SDS011;5029;47.378;11.776;2023-03-14T17:32:57;4.97;;;2.50;;
9976;SDS011;5029;47.378;11.776;2023-03-14T17:38:04;1.00;;;0.90;;
9976;SDS011;5029;47.378;11.776;2023-03-14T17:43:09;1.00;;;1.00;;
9976;SDS011;5029;47.378;11.776;2023-03-14T17:48:15;0.73;;;0.70;;
9976;SDS011;5029;47.378;11.776;2023-03-14T17:53:19;1.70;;;0.50;;
9976;SDS011;5029;47.378;11.776;2023-03-14T17:58:24;0.67;;;0.67;;
9976;SDS011;5029;47.378;11.776;2023-03-14T18:03:31;0.70;;;0.50;;
9976;SDS011;5029;47.378;11.776;2023-03-14T18:08:36;0.30;;;0.30;;
9976;SDS011;5029;47.378;11.776;2023-03-14T18:13:42;0.97;;;0.30;;
9976;SDS011;5029;47.378;11.776;2023-03-14T18:18:50;3.17;;;0.50;;
9976;SDS011;5029;47.378;11.776;2023-03-14T18:23:57;0.50;;;0.50;;
9976;SDS011;5029;47.378;11.776;2023-03-14T18:29:03;1.33;;;0.47;;
9976;SDS011;5029;47.378;11.776;2023-03-14T18:34:08;1.10;;;0.40;;
9976;SDS011;5029;47.378;11.776;2023-03-14T18:39:13;0.57;;;0.30;;
9976;SDS011;5029;47.378;11.776;2023-03-14T18:44:19;0.63;;;0.20;;
9976;SDS011;5029;47.378;11.776;2023-03-14T18:49:25;0.37;;;0.20;;
9976;SDS011;5029;47.378;11.776;2023-03-14T18:54:29;0.10;;;0.10;;
9976;SDS011;5029;47.378;11.776;2023-03-14T18:59:34;0.30;;;0.27;;
9976;SDS011;5029;47.378;11.776;2023-03-14T19:04:40;0.77;;;0.50;;
9976;SDS011;5029;47.378;11.776;2023-03-14T19:09:45;0.67;;;0.50;;
9976;SDS011;5029;47.378;11.776;2023-03-14T19:14:50;0.60;;;0.40;;
9976;SDS011;5029;47.378;11.776;2023-03-14T19:19:56;0.50;;;0.50;;
9976;SDS011;5029;47.378;11.776;2023-03-14T19:25:05;0.80;;;0.60;;
9976;SDS011;5029;47.378;11.776;2023-03-14T19:30:12;0.53;;;0.40;;
9976;SDS011;5029;47.378;11.776;2023-03-14T19:35:31;1.70;;;1.30;;
9976;SDS011;5029;47.378;11.776;2023-03-14T19:40:39;0.40;;;0.30;;
9976;SDS011;5029;47.378;11.776;2023-03-14T19:45:46;0.37;;;0.37;;
9976;SDS011;5029;47.378;11.776;2023-03-14T19:50:54;0.60;;;0.30;;
9976;SDS011;5029;47.378;11.776;2023-03-14T19:56:00;0.43;;;0.40;;
9976;SDS011;5029;47.378;11.776;2023-03-14T20:01:11;0.60;;;0.60;;
9976;SDS011;5029;47.378;11.776;2023-03-14T20:06:27;1.67;;;0.93;;
9976;SDS011;5029;47.378;11.776;2023-03-14T20:11:32;1.63;;;0.90;;
9976;SDS011;5029;47.378;11.776;2023-03-14T20:16:43;1.53;;;0.93;;
9976;SDS011;5029;47.378;11.776;2023-03-14T20:21:50;0.87;;;0.83;;
9976;SDS011;5029;47.378;11.776;2023-03-14T20:26:58;0.97;;;0.40;;
9976;SDS011;5029;47.378;11.776;2023-03-14T20:32:06;1.70;;;0.40;;
9976;SDS011;5029;47.378;11.776;2023-03-14T20:37:13;2.07;;;0.57;;
9976;SDS011;5029;47.378;11.776;2023-03-14T20:42:26;1.90;;;0.60;;
9976;SDS011;5029;47.378;11.776;2023-03-14T20:47:48;0.30;;;0.23;;
9976;SDS011;5029;47.378;11.776;2023-03-14T20:52:55;1.70;;;0.43;;
9976;SDS011;5029;47.378;11.776;2023-03-14T20:58:01;0.53;;;0.47;;
9976;SDS011;5029;47.378;11.776;2023-03-14T21:03:05;1.07;;;0.50;;
9976;SDS011;5029;47.378;11.776;2023-03-14T21:08:14;0.57;;;0.53;;
9976;SDS011;5029;47.378;11.776;2023-03-14T21:13:22;0.70;;;0.53;;
9976;SDS011;5029;47.378;11.776;2023-03-14T21:18:27;1.50;;;0.67;;
9976;SDS011;5029;47.378;11.776;2023-03-14T21:23:33;1.57;;;0.60;;
9976;SDS011;5029;47.378;11.776;2023-03-14T21:28:37;1.43;;;0.70;;
9976;SDS011;5029;47.378;11.776;2023-03-14T21:33:45;1.43;;;0.90;;
9976;SDS011;5029;47.378;11.776;2023-03-14T21:38:51;1.23;;;0.50;;
9976;SDS011;5029;47.378;11.776;2023-03-14T21:43:54;0.43;;;0.30;;
9976;SDS011;5029;47.378;11.776;2023-03-14T21:48:58;1.23;;;0.50;;
9976;SDS011;5029;47.378;11.776;2023-03-14T21:54:03;0.63;;;0.60;;
9976;SDS011;5029;47.378;11.776;2023-03-14T21:59:10;1.90;;;0.60;;
9976;SDS011;5029;47.378;11.776;2023-03-14T22:04:14;0.77;;;0.63;;
9976;SDS011;5029;47.378;11.776;2023-03-14T22:09:19;0.93;;;0.83;;
9976;SDS011;5029;47.378;11.776;2023-03-14T22:14:23;3.23;;;1.30;;
9976;SDS011;5029;47.378;11.776;2023-03-14T22:19:27;1.90;;;0.90;;
9976;SDS011;5029;47.378;11.776;2023-03-14T22:24:32;1.27;;;1.10;;
9976;SDS011;5029;47.378;11.776;2023-03-14T22:29:36;0.93;;;0.70;;
9976;SDS011;5029;47.378;11.776;2023-03-14T22:34:39;0.93;;;0.80;;
9976;SDS011;5029;47.378;11.776;2023-03-14T22:39:45;1.20;;;0.80;;
9976;SDS011;5029;47.378;11.776;2023-03-14T22:44:50;0.87;;;0.40;;
9976;SDS011;5029;47.378;11.776;2023-03-14T22:49:54;0.30;;;0.30;;
9976;SDS011;5029;47.378;11.776;2023-03-14T22:54:58;0.30;;;0.23;;
9976;SDS011;5029;47.378;11.776;2023-03-14T23:00:02;0.57;;;0.40;;
9976;SDS011;5029;47.378;11.776;2023-03-14T23:05:08;0.40;;;0.40;;
9976;SDS011;5029;47.378;11.776;2023-03-14T23:10:13;0.40;;;0.30;;
9976;SDS011;5029;47.378;11.776;2023-03-14T23:15:16;0.40;;;0.40;;
9976;SDS011;5029;47.378;11.776;2023-03-14T23:20:20;0.77;;;0.30;;
9976;SDS011;5029;47.378;11.776;2023-03-14T23:25:25;0.70;;;0.30;;
9976;SDS011;5029;47.378;11.776;2023-03-14T23:30:31;0.73;;;0.50;;
9976;SDS011;5029;47.378;11.776;2023-03-14T23:35:40;0.30;;;0.30;;
9976;SDS011;5029;47.378;11.776;2023-03-14T23:40:44;0.20;;;0.20;;
9976;SDS011;5029;47.378;11.776;2023-03-14T23:45:48;0.20;;;0.20;;
9976;SDS011;5029;47.378;11.776;2023-03-14T23:50:53;0.50;;;0.30;;
9976;SDS011;5029;47.378;11.776;2023-03-14T23:55:59;0.97;;;0.30;;
